Time;durP1;ratioP1;P1;durP2;ratioP2;P2;SDS_P1;SDS_P2;PMS_P1;PMS_P2;Temp;Humidity;BMP_temperature;BMP_pressure;BME280_temperature;BME280_humidity;BME280_pressure;Samples;Min_cycle;Max_cycle;Signal;HPM_P1;HPM_P2
2022/12/05 00:00:54;;;;;;;6.20;1.10;;;;;;;3.81;100.00;100144.25;5031715;28;20459;-54
2022/12/05 00:03:21;;;;;;;10.93;2.00;;;;;;;3.82;100.00;100151.25;5031997;28;20455;-55
2022/12/05 00:05:47;;;;;;;2.20;2.00;;;;;;;3.80;100.00;100152.16;5031497;28;20470;-54
2022/12/05 00:08:14;;;;;;;1.93;1.83;;;;;;;3.79;100.00;100151.28;5031682;28;20447;-55
2022/12/05 00:10:40;;;;;;;2.50;2.07;;;;;;;3.85;100.00;100147.78;5031516;28;20462;-54
2022/12/05 00:13:07;;;;;;;1.47;1.37;;;;;;;3.82;100.00;100150.38;5031898;28;20463;-55
2022/12/05 00:15:40;;;;;;;1.03;1.03;;;;;;;3.79;100.00;100153.03;5031552;28;20471;-54
2022/12/05 00:18:06;;;;;;;2.40;1.20;;;;;;;3.84;100.00;100154.78;5026587;28;20488;-54
2022/12/05 00:20:33;;;;;;;2.30;2.03;;;;;;;3.79;100.00;100168.81;5027793;28;20463;-54
2022/12/05 00:22:59;;;;;;;2.10;1.93;;;;;;;3.78;100.00;100165.31;5031383;28;20945;-55
2022/12/05 00:25:26;;;;;;;4.87;2.77;;;;;;;3.84;100.00;100170.56;5031710;28;20479;-54
2022/12/05 00:27:53;;;;;;;1.53;1.43;;;;;;;3.90;100.00;100168.78;5030747;28;20972;-54
2022/12/05 00:30:19;;;;;;;2.00;1.90;;;;;;;3.79;100.00;100161.78;5031399;28;20455;-53
2022/12/05 00:32:45;;;;;;;2.17;2.07;;;;;;;3.84;100.00;100173.19;5031277;28;20973;-55
2022/12/05 00:35:12;;;;;;;2.60;1.70;;;;;;;3.80;100.00;100175.81;5031204;28;20471;-54
2022/12/05 00:37:38;;;;;;;2.47;2.37;;;;;;;3.91;100.00;100179.28;5031154;28;20910;-55
2022/12/05 00:40:05;;;;;;;2.50;2.40;;;;;;;3.95;100.00;100182.78;5030976;28;20521;-55
2022/12/05 00:42:31;;;;;;;4.90;2.30;;;;;;;3.94;100.00;100184.53;5031255;28;20474;-53
2022/12/05 00:44:58;;;;;;;3.27;1.53;;;;;;;3.91;100.00;100189.81;5030983;28;20456;-54
2022/12/05 00:47:24;;;;;;;11.73;1.53;;;;;;;3.90;100.00;100182.78;5030890;28;20463;-55
2022/12/05 00:49:51;;;;;;;4.37;2.47;;;;;;;3.86;100.00;100183.69;5030864;28;20456;-54
2022/12/05 00:52:17;;;;;;;11.07;2.97;;;;;;;3.78;100.00;100183.72;5030743;28;20451;-54
2022/12/05 00:54:43;;;;;;;2.33;1.30;;;;;;;3.80;100.00;100179.31;5030657;28;20513;-54
2022/12/05 00:57:10;;;;;;;2.40;2.30;;;;;;;3.86;100.00;100181.94;5030469;28;20496;-54
2022/12/05 00:59:36;;;;;;;0.97;0.90;;;;;;;4.00;100.00;100192.41;5030812;28;20539;-54
2022/12/05 01:02:03;;;;;;;2.43;2.33;;;;;;;4.01;100.00;100180.13;5030753;28;20455;-54
2022/12/05 01:04:29;;;;;;;3.00;2.80;;;;;;;4.20;100.00;100189.69;5030529;28;21004;-54
2022/12/05 01:06:57;;;;;;;0.80;0.80;;;;;;;4.30;100.00;100190.53;5030300;28;20479;-53
2022/12/05 01:09:24;;;;;;;2.60;2.50;;;;;;;4.44;100.00;100186.06;5030866;28;20462;-53
2022/12/05 01:11:51;;;;;;;2.40;2.30;;;;;;;4.50;100.00;100191.28;5030660;28;20470;-53
2022/12/05 01:14:20;;;;;;;1.00;1.00;;;;;;;4.22;100.00;100192.31;5030601;28;20456;-55
2022/12/05 01:16:48;;;;;;;1.23;1.13;;;;;;;4.28;100.00;100192.28;5030199;28;20541;-54
2022/12/05 01:19:24;;;;;;;4.07;1.87;;;;;;;4.01;100.00;100194.16;5030375;28;20937;-55
2022/12/05 01:21:51;;;;;;;3.93;1.70;;;;;;;4.22;100.00;100195.81;5030169;28;20447;-54
2022/12/05 01:24:23;;;;;;;4.47;2.87;;;;;;;4.26;100.00;100205.47;5030350;28;20478;-55
2022/12/05 01:26:50;;;;;;;1.33;0.97;;;;;;;4.22;100.00;100206.34;5030384;28;20831;-55
2022/12/05 01:29:19;;;;;;;5.70;2.33;;;;;;;4.11;100.00;100202.88;5030340;28;20462;-54
2022/12/05 01:31:46;;;;;;;1.90;1.80;;;;;;;4.23;100.00;100205.44;5030434;28;20945;-55
2022/12/05 01:34:15;;;;;;;2.80;2.70;;;;;;;3.85;100.00;100197.72;5030028;28;20459;-54
2022/12/05 01:36:42;;;;;;;2.30;2.07;;;;;;;4.00;100.00;100204.69;5029751;28;20503;-53
2022/12/05 01:39:09;;;;;;;1.40;1.30;;;;;;;3.97;100.00;100207.28;5029145;28;21037;-54
2022/12/05 01:41:39;;;;;;;1.90;1.70;;;;;;;3.86;100.00;100207.34;5030089;28;20459;-55
2022/12/05 01:44:06;;;;;;;1.67;1.60;;;;;;;4.08;100.00;100210.78;5029915;28;21082;-55
2022/12/05 01:46:35;;;;;;;1.40;1.27;;;;;;;4.09;100.00;100208.13;5029698;28;20479;-55
2022/12/05 01:49:08;;;;;;;3.30;1.70;;;;;;;3.95;100.00;100214.31;5030079;28;20455;-53
2022/12/05 01:51:38;;;;;;;21.63;3.47;;;;;;;3.86;100.00;100210.84;5029818;28;20826;-54
2022/12/05 01:54:05;;;;;;;2.00;1.90;;;;;;;3.96;100.00;100216.94;5029854;28;20478;-54
2022/12/05 01:56:34;;;;;;;0.70;0.70;;;;;;;3.88;100.00;100217.88;5029982;28;20479;-54
2022/12/05 01:59:02;;;;;;;2.00;1.20;;;;;;;3.88;100.00;100210.84;5029495;28;20456;-53
2022/12/05 02:01:29;;;;;;;6.90;2.03;;;;;;;4.05;100.00;100216.06;5029836;28;20455;-54
2022/12/05 02:03:57;;;;;;;3.03;2.50;;;;;;;4.30;100.00;100208.94;5029569;28;20459;-55
2022/12/05 02:06:25;;;;;;;3.80;1.00;;;;;;;4.39;100.00;100219.44;5029422;28;20479;-53
2022/12/05 02:08:53;;;;;;;3.73;2.13;;;;;;;4.39;100.00;100219.44;5029286;28;20951;-55
2022/12/05 02:11:22;;;;;;;7.10;3.00;;;;;;;4.01;100.00;100225.72;5029706;28;20490;-56
2022/12/05 02:14:25;;;;;;;2.93;1.73;;;;;;;3.96;100.00;100223.97;5029155;28;20482;-54
2022/12/05 02:17:10;;;;;;;1.33;1.30;;;;;;;4.10;100.00;100230.03;5029446;28;20545;-54
2022/12/05 02:19:56;;;;;;;2.77;1.27;;;;;;;3.99;100.00;100231.88;5029229;28;20456;-53
2022/12/05 02:22:54;;;;;;;1.63;1.40;;;;;;;4.31;100.00;100221.22;5029265;28;20487;-54
2022/12/05 02:25:27;;;;;;;1.20;0.80;;;;;;;4.08;100.00;100221.28;5016929;28;20476;-55
2022/12/05 02:28:02;;;;;;;8.60;2.97;;;;;;;4.24;100.00;100228.25;5029188;28;20832;-55
2022/12/05 02:30:53;;;;;;;1.47;1.43;;;;;;;4.20;100.00;100230.91;5029088;28;20462;-55
2022/12/05 02:33:29;;;;;;;0.40;0.37;;;;;;;4.13;100.00;100224.81;5029249;28;20451;-54
2022/12/05 02:36:09;;;;;;;1.17;0.80;;;;;;;4.10;100.00;100224.78;5028645;28;20494;-54
2022/12/05 02:38:41;;;;;;;1.43;1.33;;;;;;;4.04;100.00;100223.06;5029915;28;20491;-53
2022/12/05 02:41:44;;;;;;;4.77;2.83;;;;;;;4.07;100.00;100219.53;5026825;28;20533;-54
2022/12/05 02:44:16;;;;;;;1.67;1.10;;;;;;;4.04;100.00;100228.31;5029296;28;20447;-53
2022/12/05 02:46:45;;;;;;;1.00;1.00;;;;;;;4.07;100.00;100230.06;5029171;28;20468;-54
2022/12/05 02:49:16;;;;;;;1.50;1.40;;;;;;;4.24;100.00;100224.72;5029430;28;20462;-53
2022/12/05 02:51:49;;;;;;;1.03;0.93;;;;;;;4.14;100.00;100221.28;5029310;28;20797;-54
2022/12/05 02:54:19;;;;;;;8.13;1.13;;;;;;;4.11;100.00;100226.53;5029027;28;20525;-54
2022/12/05 02:56:48;;;;;;;0.93;0.70;;;;;;;4.10;100.00;100224.78;5029291;28;20510;-54
2022/12/05 02:59:15;;;;;;;2.20;0.93;;;;;;;3.94;100.00;100223.09;5028982;28;20462;-54
2022/12/05 03:01:49;;;;;;;1.03;1.03;;;;;;;3.97;100.00;100223.06;5028737;28;20451;-53
2022/12/05 03:04:17;;;;;;;1.80;1.70;;;;;;;4.02;100.00;100223.97;5029126;28;20842;-53
2022/12/05 03:06:49;;;;;;;0.97;0.87;;;;;;;3.76;100.00;100218.75;5028980;28;20486;-54
2022/12/05 03:09:35;;;;;;;0.53;0.50;;;;;;;3.79;100.00;100222.25;5029236;28;20502;-54
2022/12/05 03:12:11;;;;;;;9.73;0.80;;;;;;;3.88;100.00;100218.75;5028776;28;20448;-54
2022/12/05 03:14:43;;;;;;;1.33;1.03;;;;;;;3.81;100.00;100225.75;5028922;28;20968;-53
2022/12/05 03:17:17;;;;;;;1.97;0.97;;;;;;;3.78;100.00;100232.78;5019003;28;20500;-53
2022/12/05 03:19:49;;;;;;;1.10;1.10;;;;;;;3.78;100.00;100233.66;5028919;28;20516;-54
2022/12/05 03:22:31;;;;;;;0.37;0.37;;;;;;;3.78;100.00;100238.91;5028822;28;20451;-54
2022/12/05 03:24:59;;;;;;;3.13;2.93;;;;;;;3.74;100.00;100239.81;5028761;28;20455;-53
2022/12/05 03:27:51;;;;;;;0.57;0.57;;;;;;;3.60;100.00;100246.84;5028781;28;20455;-53
2022/12/05 03:30:20;;;;;;;1.17;1.07;;;;;;;3.75;100.00;100244.19;5016658;28;20452;-54
2022/12/05 03:33:00;;;;;;;1.50;1.40;;;;;;;3.56;100.00;100245.06;5028739;28;20466;-53
2022/12/05 03:35:56;;;;;;;0.37;0.37;;;;;;;3.57;100.00;100238.97;5028747;28;20483;-54
2022/12/05 03:38:43;;;;;;;3.53;1.30;;;;;;;3.75;100.00;100238.03;5016094;28;20491;-54
2022/12/05 03:41:35;;;;;;;2.40;1.50;;;;;;;3.64;100.00;100235.44;5026084;28;20505;-54
2022/12/05 03:44:08;;;;;;;1.17;1.13;;;;;;;3.66;100.00;100249.44;5025124;28;20459;-53
2022/12/05 03:46:52;;;;;;;0.87;0.87;;;;;;;3.81;100.00;100259.91;5028686;28;20522;-53
2022/12/05 03:49:47;;;;;;;1.23;0.97;;;;;;;3.90;100.00;100261.66;5028964;28;20448;-53
2022/12/05 03:52:24;;;;;;;1.23;0.93;;;;;;;3.84;100.00;100256.44;5022798;28;20455;-54
2022/12/05 03:55:02;;;;;;;0.80;0.60;;;;;;;3.80;100.00;100257.31;5028517;28;20960;-53
2022/12/05 03:57:47;;;;;;;3.57;1.70;;;;;;;3.90;100.00;100256.41;5028646;28;20522;-54
2022/12/05 04:00:19;;;;;;;3.40;0.77;;;;;;;3.94;100.00;100266.03;5028788;28;20455;-53
2022/12/05 04:02:51;;;;;;;2.03;1.93;;;;;;;3.86;100.00;100257.31;5031155;28;20873;-54
2022/12/05 04:05:23;;;;;;;1.40;0.53;;;;;;;3.94;100.00;100246.75;5031902;28;20529;-53
2022/12/05 04:07:55;;;;;;;1.83;1.57;;;;;;;3.78;100.00;100248.53;5032047;28;20972;-54
2022/12/05 04:10:26;;;;;;;0.60;0.60;;;;;;;3.75;100.00;100257.31;5031994;28;20541;-54
2022/12/05 04:12:56;;;;;;;1.30;0.93;;;;;;;3.91;100.00;100262.53;5032351;28;20456;-54
2022/12/05 04:15:27;;;;;;;0.53;0.53;;;;;;;3.96;100.00;100272.16;5032806;28;20586;-53
2022/12/05 04:17:59;;;;;;;1.50;1.40;;;;;;;3.95;100.00;100285.31;5032250;28;20494;-54
2022/12/05 04:23:24;;;;;;;1.67;1.60;;;;;;;3.92;100.00;100282.69;5032062;28;20460;-54
2022/12/05 04:26:05;;;;;;;2.00;1.90;;;;;;;3.93;100.00;100277.44;5032397;28;20471;-53
2022/12/05 04:29:00;;;;;;;2.10;2.00;;;;;;;3.94;100.00;100281.81;5031809;28;20868;-53
2022/12/05 04:31:33;;;;;;;4.37;4.17;;;;;;;4.04;100.00;100282.69;5031394;28;21081;-53
2022/12/05 04:34:08;;;;;;;2.23;2.03;;;;;;;3.81;100.00;100290.59;5031678;28;20491;-54
2022/12/05 04:36:38;;;;;;;1.60;1.50;;;;;;;3.81;100.00;100287.97;5031287;28;20479;-53
2022/12/05 04:39:17;;;;;;;4.97;1.43;;;;;;;3.77;100.00;100296.75;5031354;28;20866;-54
2022/12/05 04:42:04;;;;;;;2.53;2.43;;;;;;;3.84;100.00;100303.75;5031202;28;20455;-53
2022/12/05 04:44:38;;;;;;;2.47;2.27;;;;;;;3.88;100.00;100299.38;5031535;28;20448;-54
2022/12/05 04:47:08;;;;;;;6.07;3.23;;;;;;;4.00;100.00;100307.25;5031592;28;20499;-54
2022/12/05 04:49:37;;;;;;;2.30;2.20;;;;;;;4.04;100.00;100311.59;5018166;28;20455;-53
2022/12/05 04:52:07;;;;;;;3.13;2.83;;;;;;;4.07;100.00;100301.94;5030935;28;20456;-55
2022/12/05 04:54:41;;;;;;;1.47;1.37;;;;;;;4.08;100.00;100308.97;5031865;28;20563;-54
2022/12/05 04:57:14;;;;;;;4.93;2.93;;;;;;;4.13;100.00;100306.34;5031980;28;20475;-54
2022/12/05 04:59:41;;;;;;;2.00;1.37;;;;;;;4.01;100.00;100304.59;5031711;28;20444;-53
2022/12/05 05:02:11;;;;;;;3.93;2.40;;;;;;;4.06;100.00;100304.59;5031026;28;20968;-53
2022/12/05 05:04:46;;;;;;;10.00;2.67;;;;;;;4.09;100.00;100304.56;5031490;28;20453;-55
2022/12/05 05:07:13;;;;;;;3.03;2.50;;;;;;;4.07;100.00;100298.44;5031422;28;20462;-55
2022/12/05 05:09:40;;;;;;;8.43;1.43;;;;;;;3.96;100.00;100285.31;5031687;28;20447;-55
2022/12/05 05:12:07;;;;;;;3.60;3.40;;;;;;;4.08;100.00;100289.66;5031285;28;20462;-55
2022/12/05 05:14:34;;;;;;;3.47;2.10;;;;;;;4.09;100.00;100296.69;5030205;28;20812;-55
2022/12/05 05:17:01;;;;;;;7.53;3.43;;;;;;;4.15;100.00;100294.06;5030955;28;20498;-55
2022/12/05 05:19:27;;;;;;;1.07;1.03;;;;;;;4.11;100.00;100292.28;5030229;28;20492;-55
2022/12/05 05:21:54;;;;;;;3.30;1.50;;;;;;;4.13;100.00;100299.31;5031106;28;20460;-55
2022/12/05 05:24:22;;;;;;;3.33;3.03;;;;;;;4.10;100.00;100296.66;5031180;28;20459;-55
2022/12/05 05:26:48;;;;;;;1.67;1.57;;;;;;;4.08;100.00;100298.44;5030856;28;20893;-55
2022/12/05 05:29:22;;;;;;;1.20;1.20;;;;;;;4.12;100.00;100301.97;5030872;28;20937;-54
2022/12/05 05:31:49;;;;;;;1.80;1.60;;;;;;;4.16;100.00;100301.94;5030930;28;20448;-55
2022/12/05 05:34:15;;;;;;;3.63;1.63;;;;;;;4.06;100.00;100304.59;5030928;28;20830;-53
2022/12/05 05:36:42;;;;;;;3.60;2.57;;;;;;;4.14;100.00;100303.69;5030506;28;20479;-53
2022/12/05 05:39:13;;;;;;;7.70;4.53;;;;;;;4.10;100.00;100304.56;5030572;28;21034;-53
2022/12/05 05:41:41;;;;;;;2.20;1.50;;;;;;;4.21;100.00;100307.19;5029138;28;20882;-53
2022/12/05 05:44:08;;;;;;;2.40;2.30;;;;;;;4.16;100.00;100301.06;5031123;28;20448;-55
2022/12/05 05:46:35;;;;;;;2.20;2.10;;;;;;;3.90;100.00;100295.84;5030705;28;20476;-54
2022/12/05 05:49:02;;;;;;;4.53;3.30;;;;;;;4.00;100.00;100304.59;5030367;28;20509;-55
2022/12/05 05:51:29;;;;;;;6.97;3.80;;;;;;;4.15;100.00;100312.47;5030168;28;20448;-55
2022/12/05 05:53:57;;;;;;;13.27;5.63;;;;;;;4.10;100.00;100308.94;5029682;28;20537;-53
2022/12/05 05:56:25;;;;;;;2.70;2.60;;;;;;;4.11;100.00;100306.34;5029545;28;20984;-53
2022/12/05 05:59:00;;;;;;;5.33;2.73;;;;;;;4.28;100.00;100314.19;5029400;28;21054;-55
2022/12/05 06:01:27;;;;;;;1.20;1.10;;;;;;;4.30;100.00;100312.44;5030106;28;20455;-56
2022/12/05 06:03:54;;;;;;;3.43;3.23;;;;;;;4.24;100.00;100317.69;5029396;28;20873;-56
2022/12/05 06:06:21;;;;;;;1.13;1.13;;;;;;;4.47;100.00;100313.25;5029388;28;20472;-55
2022/12/05 06:08:48;;;;;;;1.30;1.27;;;;;;;4.40;100.00;100318.53;5029616;28;20502;-54
2022/12/05 06:11:17;;;;;;;1.87;1.77;;;;;;;4.33;100.00;100312.41;5029194;28;20505;-54
2022/12/05 06:13:51;;;;;;;7.73;4.23;;;;;;;4.25;100.00;100314.22;5029345;28;20868;-56
2022/12/05 06:16:19;;;;;;;1.53;1.43;;;;;;;4.30;100.00;100322.06;5029251;28;20482;-54
2022/12/05 06:18:46;;;;;;;7.93;2.93;;;;;;;4.32;100.00;100320.31;5024929;28;20528;-54
2022/12/05 06:21:13;;;;;;;5.23;1.67;;;;;;;4.28;100.00;100324.72;5027715;28;20451;-53
2022/12/05 06:23:42;;;;;;;5.03;3.20;;;;;;;4.35;100.00;100323.78;5029203;28;20464;-54
2022/12/05 06:26:14;;;;;;;3.30;3.20;;;;;;;4.48;100.00;100327.28;5028946;28;20486;-54
2022/12/05 06:28:41;;;;;;;3.60;2.77;;;;;;;4.36;100.00;100333.44;5029187;28;20455;-54
2022/12/05 06:31:13;;;;;;;2.87;2.77;;;;;;;4.39;100.00;100338.72;5029106;28;20456;-54
2022/12/05 06:33:40;;;;;;;3.63;2.30;;;;;;;4.50;100.00;100343.94;5029167;28;20941;-54
2022/12/05 06:36:09;;;;;;;6.50;2.43;;;;;;;4.48;100.00;100345.69;5060575;28;21008;-54
2022/12/05 06:38:36;;;;;;;3.70;3.40;;;;;;;4.52;100.00;100339.53;5029019;28;20492;-54
2022/12/05 06:41:10;;;;;;;3.43;2.60;;;;;;;4.50;100.00;100341.28;5026398;28;20534;-54
2022/12/05 06:43:36;;;;;;;2.40;2.20;;;;;;;4.47;100.00;100338.69;5029601;28;20455;-54
2022/12/05 06:46:04;;;;;;;3.33;3.13;;;;;;;4.49;100.00;100330.78;5030330;28;20786;-54
2022/12/05 06:48:31;;;;;;;2.57;2.47;;;;;;;4.97;100.00;100333.22;5029611;28;20484;-54
2022/12/05 06:50:57;;;;;;;3.30;3.10;;;;;;;4.69;100.00;100336.84;5028713;28;20456;-55
2022/12/05 06:53:23;;;;;;;5.53;1.97;;;;;;;4.60;100.00;100340.38;5029308;28;20459;-55
2022/12/05 06:55:58;;;;;;;16.73;2.37;;;;;;;4.45;100.00;100349.22;5028830;28;20476;-54
2022/12/05 06:58:25;;;;;;;3.40;3.10;;;;;;;4.53;100.00;100349.22;5028949;28;20639;-54
2022/12/05 07:03:37;;;;;;;13.13;3.93;;;;;;;4.33;100.00;100356.25;5028954;28;20454;-54
2022/12/05 07:06:05;;;;;;;3.07;2.13;;;;;;;4.30;100.00;100354.53;5028724;28;20479;-55
2022/12/05 07:08:33;;;;;;;3.67;3.37;;;;;;;4.29;100.00;100358.03;5028791;28;20782;-55
2022/12/05 07:11:01;;;;;;;1.90;1.80;;;;;;;4.23;100.00;100365.91;5028812;28;20816;-55
2022/12/05 07:13:28;;;;;;;7.07;2.67;;;;;;;4.16;100.00;100365.06;5028715;28;20466;-54
2022/12/05 07:15:54;;;;;;;2.10;1.90;;;;;;;4.24;100.00;100357.16;5028548;28;20471;-55
2022/12/05 07:18:22;;;;;;;2.17;2.00;;;;;;;4.19;100.00;100365.94;5028861;28;20490;-55
2022/12/05 07:20:56;;;;;;;2.17;2.07;;;;;;;4.20;100.00;100376.44;5028321;28;20504;-55
2022/12/05 07:23:41;;;;;;;4.57;2.23;;;;;;;4.32;100.00;100372.94;5028869;28;20462;-53
2022/12/05 07:26:10;;;;;;;2.73;2.53;;;;;;;4.25;100.00;100377.34;5028580;28;21088;-53
2022/12/05 07:28:36;;;;;;;2.93;2.53;;;;;;;4.47;100.00;100373.78;5015954;28;20447;-54
2022/12/05 07:31:05;;;;;;;3.20;2.97;;;;;;;4.30;100.00;100372.94;5027343;28;20509;-53
2022/12/05 07:33:32;;;;;;;5.10;4.40;;;;;;;4.32;100.00;100384.34;5028561;28;20976;-53
2022/12/05 07:36:08;;;;;;;3.77;3.57;;;;;;;4.29;100.00;100378.22;5028182;28;20479;-53
2022/12/05 07:38:34;;;;;;;3.20;2.90;;;;;;;4.31;100.00;100382.59;5032203;28;20505;-54
2022/12/05 07:41:09;;;;;;;3.10;2.83;;;;;;;4.39;100.00;100395.75;5032085;28;20970;-53
2022/12/05 07:43:40;;;;;;;2.50;2.40;;;;;;;4.44;100.00;100391.31;5031997;28;20937;-52
2022/12/05 07:46:10;;;;;;;6.07;3.67;;;;;;;4.34;100.00;100397.47;5032167;28;20549;-54
2022/12/05 07:48:37;;;;;;;9.00;2.83;;;;;;;4.31;100.00;100394.84;5032228;28;20474;-53
2022/12/05 07:51:06;;;;;;;4.80;3.67;;;;;;;4.30;100.00;100401.88;5031889;28;20459;-53
2022/12/05 07:53:33;;;;;;;3.10;2.87;;;;;;;4.29;100.00;100402.75;5032198;28;20451;-53
2022/12/05 07:56:05;;;;;;;2.17;1.97;;;;;;;4.31;100.00;100410.66;5032214;28;20867;-53
2022/12/05 07:58:32;;;;;;;5.80;2.23;;;;;;;4.29;100.00;100418.53;5031959;28;20495;-53
2022/12/05 08:01:10;;;;;;;4.07;3.77;;;;;;;4.32;100.00;100423.78;5032023;28;20483;-53
2022/12/05 08:03:37;;;;;;;1.83;1.73;;;;;;;4.38;100.00;100420.28;5031830;28;20509;-53
2022/12/05 08:06:08;;;;;;;5.33;3.17;;;;;;;4.45;100.00;100433.44;5031649;28;20471;-53
2022/12/05 08:08:35;;;;;;;4.90;3.60;;;;;;;4.59;100.00;100440.44;5031838;28;20444;-53
2022/12/05 08:11:08;;;;;;;8.33;4.43;;;;;;;4.62;100.00;100437.78;5032041;28;20509;-54
2022/12/05 08:13:35;;;;;;;3.50;3.40;;;;;;;4.59;100.00;100440.44;5031889;28;20486;-53
2022/12/05 08:16:07;;;;;;;4.83;3.73;;;;;;;4.59;100.00;100436.03;5031538;28;20482;-54
2022/12/05 08:18:33;;;;;;;4.07;3.00;;;;;;;4.62;100.00;100443.91;5031536;28;21060;-52
2022/12/05 08:21:09;;;;;;;5.80;3.93;;;;;;;4.55;100.00;100438.69;5031698;28;20497;-53
2022/12/05 08:23:36;;;;;;;6.40;3.87;;;;;;;4.56;100.00;100437.81;5031462;28;20459;-55
2022/12/05 08:26:12;;;;;;;12.13;3.13;;;;;;;4.73;100.00;100436.88;5031329;28;20475;-53
2022/12/05 08:28:39;;;;;;;7.80;2.67;;;;;;;4.70;100.00;100436.03;5019908;28;20440;-54
2022/12/05 08:31:14;;;;;;;1.50;1.50;;;;;;;4.68;100.00;100438.66;5031525;28;20451;-54
2022/12/05 08:33:42;;;;;;;3.27;3.03;;;;;;;4.62;100.00;100440.41;5031418;28;20487;-54
2022/12/05 08:36:12;;;;;;;4.33;3.93;;;;;;;4.67;100.00;100446.56;5031217;28;20522;-55
2022/12/05 08:38:38;;;;;;;2.50;2.40;;;;;;;4.68;100.00;100446.56;5032314;28;20497;-54
2022/12/05 08:41:07;;;;;;;7.73;3.07;;;;;;;4.66;100.00;100447.41;5031013;28;20522;-55
2022/12/05 08:43:33;;;;;;;10.27;5.27;;;;;;;4.67;100.00;100454.47;5031391;28;20455;-54
2022/12/05 08:46:00;;;;;;;7.93;3.87;;;;;;;4.72;100.00;100450.94;5030954;28;20838;-56
2022/12/05 08:48:29;;;;;;;2.90;2.70;;;;;;;4.59;100.00;100450.97;5030940;28;20479;-56
2022/12/05 08:50:56;;;;;;;6.27;5.87;;;;;;;4.68;100.00;100459.72;5031040;28;20486;-56
2022/12/05 08:53:22;;;;;;;2.10;1.90;;;;;;;4.83;100.00;100455.31;5031067;28;20845;-56
2022/12/05 08:55:49;;;;;;;16.83;2.60;;;;;;;5.01;100.00;100453.47;5030639;28;20471;-56
2022/12/05 08:58:15;;;;;;;3.47;2.80;;;;;;;4.91;100.00;100462.28;5031002;28;20462;-55
2022/12/05 09:00:42;;;;;;;2.23;2.13;;;;;;;4.84;100.00;100457.06;5030893;28;20495;-55
2022/12/05 09:03:10;;;;;;;4.63;4.23;;;;;;;4.84;100.00;100465.81;5030809;28;20983;-55
2022/12/05 09:05:37;;;;;;;4.87;3.33;;;;;;;4.91;100.00;100469.31;5030773;28;20491;-54
2022/12/05 09:08:03;;;;;;;4.07;3.33;;;;;;;5.09;100.00;100468.41;5030665;28;20455;-54
2022/12/05 09:10:30;;;;;;;4.10;3.60;;;;;;;5.02;100.00;100468.41;5030492;28;20448;-55
2022/12/05 09:12:56;;;;;;;7.00;4.80;;;;;;;4.99;100.00;100475.44;5030841;28;20455;-55
2022/12/05 09:15:23;;;;;;;4.80;4.40;;;;;;;5.03;100.00;100471.91;5030348;28;20479;-54
2022/12/05 09:17:49;;;;;;;4.70;2.87;;;;;;;5.07;100.00;100471.00;5031799;28;20459;-56
2022/12/05 09:20:17;;;;;;;5.43;4.00;;;;;;;5.08;100.00;100475.41;5030864;28;20495;-55
2022/12/05 09:22:43;;;;;;;3.63;2.77;;;;;;;4.99;100.00;100472.81;5030197;28;20452;-54
2022/12/05 09:25:09;;;;;;;6.80;3.60;;;;;;;4.84;100.00;100488.66;5030202;28;20537;-54
2022/12/05 09:27:36;;;;;;;5.67;3.50;;;;;;;4.88;100.00;100488.63;5030618;28;20474;-54
2022/12/05 09:30:04;;;;;;;3.73;2.43;;;;;;;4.98;100.00;100487.72;5030316;28;20483;-54
2022/12/05 09:32:31;;;;;;;2.23;2.03;;;;;;;4.89;100.00;100495.66;5028965;28;20459;-54
2022/12/05 09:34:57;;;;;;;3.40;1.90;;;;;;;4.95;100.00;100505.31;5030269;28;20451;-54
2022/12/05 09:37:24;;;;;;;3.57;3.33;;;;;;;5.01;100.00;100493.00;5030002;28;20451;-54
2022/12/05 09:40:14;;;;;;;5.13;2.50;;;;;;;4.97;100.00;100501.78;5057649;28;20490;-54
2022/12/05 09:42:52;;;;;;;4.07;2.53;;;;;;;4.90;100.00;100499.16;5030233;28;20482;-54
2022/12/05 09:45:27;;;;;;;9.07;2.50;;;;;;;4.98;100.00;100502.66;5030004;28;20468;-55
2022/12/05 09:48:12;;;;;;;4.73;4.40;;;;;;;5.17;100.00;100492.94;5029689;28;20474;-54
2022/12/05 09:50:59;;;;;;;4.33;1.70;;;;;;;5.05;100.00;100497.34;5029899;28;20938;-54
2022/12/05 09:53:32;;;;;;;2.53;2.40;;;;;;;5.09;100.00;100484.19;5029945;28;20459;-54
2022/12/05 09:56:08;;;;;;;7.20;3.33;;;;;;;5.09;100.00;100484.19;5029771;28;21059;-55
2022/12/05 09:58:43;;;;;;;6.60;4.37;;;;;;;5.19;100.00;100493.81;5029579;28;20956;-55
2022/12/05 10:01:35;;;;;;;5.93;3.37;;;;;;;5.24;100.00;100482.38;5029539;28;20580;-54
2022/12/05 10:04:26;;;;;;;6.83;3.23;;;;;;;5.46;100.00;100484.91;5030135;28;20475;-55
2022/12/05 10:06:55;;;;;;;2.37;2.17;;;;;;;5.42;100.00;100477.91;5029267;28;20555;-55
2022/12/05 10:09:46;;;;;;;1.97;1.87;;;;;;;5.45;100.00;100475.25;5029568;28;20447;-54
2022/12/05 10:12:39;;;;;;;8.07;3.63;;;;;;;5.31;100.00;100481.47;5029551;28;20451;-55
2022/12/05 10:15:19;;;;;;;2.77;2.63;;;;;;;5.33;100.00;100484.97;5029660;28;20866;-54
2022/12/05 10:17:55;;;;;;;5.43;5.07;;;;;;;5.30;100.00;100484.09;5029528;28;20509;-54
2022/12/05 10:20:34;;;;;;;7.77;4.73;;;;;;;5.53;100.00;100489.28;5015970;28;21080;-55
2022/12/05 10:23:17;;;;;;;3.43;3.03;;;;;;;5.54;100.00;100491.91;5029314;28;20452;-54
2022/12/05 10:26:08;;;;;;;2.70;2.50;;;;;;;5.57;100.00;100478.72;5029296;28;20585;-55
2022/12/05 10:29:01;;;;;;;3.40;3.20;;;;;;;5.82;100.00;100484.72;5029536;28;20486;-54
2022/12/05 10:31:35;;;;;;;3.10;2.90;;;;;;;5.81;100.00;100484.72;5022679;28;20518;-54
2022/12/05 10:34:25;;;;;;;3.70;2.43;;;;;;;5.62;100.00;100479.56;5029633;28;20458;-55
2022/12/05 10:37:04;;;;;;;9.93;2.73;;;;;;;5.83;100.00;100480.31;5018354;28;20487;-54
2022/12/05 10:39:31;;;;;;;3.73;2.60;;;;;;;6.07;100.00;100482.84;5029000;28;21035;-55
2022/12/05 10:41:58;;;;;;;5.20;2.00;;;;;;;6.23;100.00;100471.25;5028957;28;20513;-54
2022/12/05 10:44:24;;;;;;;1.73;1.63;;;;;;;6.15;100.00;100477.47;5029322;28;20459;-54
2022/12/05 10:46:51;;;;;;;7.43;3.50;;;;;;;6.09;100.00;100472.25;5028892;28;20471;-55
2022/12/05 10:49:18;;;;;;;3.70;2.40;;;;;;;6.11;100.00;100468.72;5029086;28;20455;-54
2022/12/05 10:51:46;;;;;;;2.70;2.57;;;;;;;6.39;100.00;100469.38;5029025;28;20451;-55
2022/12/05 10:54:28;;;;;;;19.87;3.80;;;;;;;6.02;100.00;100467.91;5028990;28;20513;-54
2022/12/05 10:56:55;;;;;;;3.47;3.17;;;;;;;6.09;100.00;100467.84;5029059;28;20467;-54
2022/12/05 10:59:24;;;;;;;2.63;2.30;;;;;;;6.09;100.00;100469.63;5029114;28;20505;-55
2022/12/05 11:01:57;;;;;;;5.20;2.73;;;;;;;6.00;100.00;100460.00;5029035;28;20492;-55
2022/12/05 11:04:42;;;;;;;7.50;3.10;;;;;;;6.10;100.00;100463.47;5029090;28;20447;-54
2022/12/05 11:07:22;;;;;;;2.93;2.67;;;;;;;6.14;100.00;100462.53;5028559;28;20495;-55
2022/12/05 11:09:55;;;;;;;10.17;3.67;;;;;;;6.08;100.00;100468.75;5029059;28;20447;-55
2022/12/05 11:12:43;;;;;;;0.87;0.87;;;;;;;5.99;100.00;100460.91;5020868;28;20448;-55
2022/12/05 11:15:18;;;;;;;2.23;2.13;;;;;;;5.99;100.00;100460.91;5032793;28;20471;-55
2022/12/05 11:17:45;;;;;;;2.77;2.67;;;;;;;6.05;100.00;100460.88;5032962;28;20459;-54
2022/12/05 11:20:17;;;;;;;2.47;1.63;;;;;;;6.14;100.00;100463.41;5032703;28;21004;-54
2022/12/05 11:22:49;;;;;;;2.13;1.93;;;;;;;6.10;100.00;100464.34;5032678;28;20482;-55
2022/12/05 11:25:33;;;;;;;3.53;2.20;;;;;;;5.94;100.00;100471.50;5028128;28;21019;-55
2022/12/05 11:28:19;;;;;;;1.63;1.53;;;;;;;6.24;100.00;100472.13;5028416;28;20451;-55
2022/12/05 11:31:01;;;;;;;2.97;2.33;;;;;;;6.11;100.00;100468.72;5032612;28;20447;-55
2022/12/05 11:33:31;;;;;;;1.87;1.77;;;;;;;5.97;100.00;100473.22;5020174;28;20459;-55
2022/12/05 11:36:04;;;;;;;2.10;2.00;;;;;;;5.99;100.00;100473.22;5032297;28;20495;-55
2022/12/05 11:38:33;;;;;;;3.37;1.60;;;;;;;5.94;100.00;100468.84;5032173;28;20505;-55
2022/12/05 11:41:17;;;;;;;5.00;2.80;;;;;;;5.81;100.00;100466.28;5032305;28;20946;-55
2022/12/05 11:44:00;;;;;;;2.50;2.40;;;;;;;5.87;100.00;100476.75;5032502;28;20517;-54
2022/12/05 11:46:45;;;;;;;1.23;1.13;;;;;;;5.89;100.00;100469.72;5019844;28;20471;-55
2022/12/05 11:49:15;;;;;;;2.70;2.60;;;;;;;5.83;100.00;100465.38;5032482;28;20456;-54
2022/12/05 11:52:08;;;;;;;0.83;0.83;;;;;;;5.94;100.00;100460.06;5032777;28;20456;-54